Time;durP1;ratioP1;P1;durP2;ratioP2;P2;SDS_P1;SDS_P2;PMS_P1;PMS_P2;Temp;Humidity;BMP_temperature;BMP_pressure;BME280_temperature;BME280_humidity;BME280_pressure;Samples;Min_cycle;Max_cycle;Signal;HPM_P1;HPM_P2
2022/06/26 00:01:26;;;;;;;0.52;0.30;;;;;;;35.64;15.98;100738.31;4930400;29;20059;-78
2022/06/26 00:03:55;;;;;;;0.30;0.15;;;;;;;35.60;15.88;100737.69;4928056;29;20114;-78
2022/06/26 00:06:24;;;;;;;0.30;0.30;;;;;;;35.58;16.55;100733.41;4928175;29;20052;-77
2022/06/26 00:08:54;;;;;;;0.57;0.30;;;;;;;35.58;16.64;100730.69;4922921;29;20052;-77
2022/06/26 00:11:23;;;;;;;3.70;0.40;;;;;;;35.55;15.47;100729.09;4930673;29;20044;-78
2022/06/26 00:13:51;;;;;;;3.35;0.43;;;;;;;35.55;16.39;100729.09;4928721;28;20571;-76
2022/06/26 00:16:21;;;;;;;2.10;0.28;;;;;;;35.55;15.84;100728.22;4929935;29;20044;-77
2022/06/26 00:18:50;;;;;;;2.15;0.30;;;;;;;35.52;16.55;100723.09;4931698;29;20079;-76
2022/06/26 00:21:18;;;;;;;1.55;0.28;;;;;;;35.49;16.12;100720.63;4933991;29;20073;-80
2022/06/26 00:23:47;;;;;;;1.48;0.40;;;;;;;35.45;16.29;100717.31;4931068;29;20047;-77
2022/06/26 00:26:17;;;;;;;1.75;0.30;;;;;;;35.39;15.97;100723.16;4932417;29;20074;-79
2022/06/26 00:28:45;;;;;;;0.47;0.30;;;;;;;35.32;15.94;100724.59;4928384;29;20119;-76
2022/06/26 00:31:14;;;;;;;2.00;0.40;;;;;;;35.23;15.24;100718.06;4930508;29;20044;-76
2022/06/26 00:33:42;;;;;;;0.73;0.28;;;;;;;35.26;15.64;100717.84;4944700;29;20446;-77
2022/06/26 00:36:11;;;;;;;2.53;0.40;;;;;;;35.26;16.42;100717.00;4931481;29;20479;-76
2022/06/26 00:38:39;;;;;;;2.70;0.40;;;;;;;35.20;15.51;100719.16;4940761;29;20550;-75
2022/06/26 00:41:08;;;;;;;0.73;0.20;;;;;;;35.18;15.74;100714.88;4932378;29;20466;-80
2022/06/26 00:43:38;;;;;;;0.63;0.40;;;;;;;35.18;15.85;100717.56;4929925;29;20044;-79
2022/06/26 00:46:07;;;;;;;1.75;0.30;;;;;;;35.09;14.48;100716.38;4931075;29;20410;-78
2022/06/26 00:48:35;;;;;;;0.93;0.30;;;;;;;35.00;15.39;100712.56;4930773;29;20103;-77
2022/06/26 00:51:05;;;;;;;4.18;0.30;;;;;;;34.95;15.15;100720.09;4931730;29;20458;-76
2022/06/26 00:53:34;;;;;;;2.75;0.20;;;;;;;34.90;15.40;100706.13;4927057;29;20072;-77
2022/06/26 00:56:02;;;;;;;3.03;0.30;;;;;;;34.88;15.74;100707.22;4932000;29;20051;-76
2022/06/26 00:58:31;;;;;;;2.20;0.40;;;;;;;34.86;16.23;100706.47;4930020;29;20044;-78
2022/06/26 01:01:01;;;;;;;1.02;0.30;;;;;;;34.81;15.56;100707.66;4936911;29;20493;-76
2022/06/26 01:03:29;;;;;;;2.15;0.32;;;;;;;34.80;16.39;100705.09;4931035;29;20039;-77
2022/06/26 01:05:58;;;;;;;2.75;0.40;;;;;;;34.78;15.94;100707.03;4929495;29;20486;-77
2022/06/26 01:08:26;;;;;;;0.50;0.35;;;;;;;34.70;15.13;100707.56;4930794;29;20052;-76
2022/06/26 01:10:55;;;;;;;3.25;0.30;;;;;;;34.66;15.60;100703.41;4933477;29;20047;-78
2022/06/26 01:13:24;;;;;;;0.70;0.30;;;;;;;34.61;15.82;100702.88;4929775;29;20051;-77
2022/06/26 01:15:52;;;;;;;2.72;0.40;;;;;;;34.50;14.84;100711.69;4932516;28;20134;-78
2022/06/26 01:18:23;;;;;;;0.85;0.30;;;;;;;34.47;15.89;100702.97;4929709;29;20533;-77
2022/06/26 01:20:54;;;;;;;1.85;0.40;;;;;;;34.45;15.78;100710.28;4932097;29;20062;-77
2022/06/26 01:23:24;;;;;;;1.55;0.95;;;;;;;34.42;15.63;100704.16;4932423;29;20490;-78
2022/06/26 01:25:52;;;;;;;1.08;0.20;;;;;;;34.41;16.07;100709.66;4927653;29;20055;-75
2022/06/26 01:28:21;;;;;;;0.90;0.30;;;;;;;34.37;16.48;100710.84;4933534;29;20048;-75
2022/06/26 01:30:49;;;;;;;0.50;0.30;;;;;;;34.33;15.51;100704.81;4931307;29;20052;-76
2022/06/26 01:33:18;;;;;;;1.10;0.57;;;;;;;34.30;16.13;100707.75;4944478;29;20138;-77
2022/06/26 01:35:47;;;;;;;0.73;0.32;;;;;;;34.28;15.74;100704.31;4935185;29;20052;-77
2022/06/26 01:38:18;;;;;;;1.00;0.40;;;;;;;34.28;16.36;100708.81;4932667;29;20047;-76
2022/06/26 01:40:48;;;;;;;0.60;0.40;;;;;;;34.25;15.41;100707.22;4934937;28;20156;-77
2022/06/26 01:43:18;;;;;;;0.93;0.30;;;;;;;34.22;15.89;100699.34;4933852;29;20055;-74
2022/06/26 01:45:48;;;;;;;0.55;0.32;;;;;;;34.17;16.56;100701.50;4940382;29;20055;-75
2022/06/26 01:48:18;;;;;;;1.55;1.05;;;;;;;34.12;16.47;100699.16;4936156;28;20043;-77
2022/06/26 01:50:48;;;;;;;3.58;0.40;;;;;;;34.10;16.28;100701.09;4931363;29;20039;-77
2022/06/26 01:53:17;;;;;;;0.50;0.30;;;;;;;34.08;17.08;100702.13;4933333;29;20490;-76
2022/06/26 01:55:47;;;;;;;2.33;0.30;;;;;;;34.03;16.27;100693.53;4934128;29;20111;-76
2022/06/26 01:58:16;;;;;;;0.93;0.30;;;;;;;33.97;17.28;100694.81;4930568;29;20560;-78
2022/06/26 02:00:46;;;;;;;3.22;0.30;;;;;;;33.94;16.44;100693.22;4935020;29;20052;-76
2022/06/26 02:03:16;;;;;;;0.65;0.20;;;;;;;33.91;16.95;100703.31;4931056;29;20095;-77
2022/06/26 02:05:45;;;;;;;0.63;0.20;;;;;;;33.84;17.08;100692.16;4933429;29;20134;-74
2022/06/26 02:08:13;;;;;;;1.42;0.22;;;;;;;33.78;16.40;100692.56;4929802;29;20055;-73
2022/06/26 02:13:39;;;;;;;0.32;0.30;;;;;;;33.66;16.21;100686.22;4932040;29;20185;-76
2022/06/26 02:16:11;;;;;;;3.72;0.47;;;;;;;33.61;17.00;100692.88;4920336;29;20071;-76
2022/06/26 02:18:44;;;;;;;0.20;0.20;;;;;;;33.54;16.93;100687.88;4917460;29;20527;-74
2022/06/26 02:21:15;;;;;;;1.13;0.45;;;;;;;33.46;17.31;100686.69;4913435;29;20059;-75
2022/06/26 02:23:45;;;;;;;5.68;0.98;;;;;;;33.42;17.42;100694.06;4910876;29;20462;-75
2022/06/26 02:26:14;;;;;;;5.55;0.40;;;;;;;33.37;17.39;100689.00;4914886;29;20069;-75
2022/06/26 02:28:45;;;;;;;2.03;0.22;;;;;;;33.31;17.42;100684.06;4913464;29;20622;-75
2022/06/26 02:31:14;;;;;;;3.05;0.40;;;;;;;33.26;17.03;100685.34;4919100;29;20130;-75
2022/06/26 02:33:42;;;;;;;2.38;0.30;;;;;;;33.20;16.76;100689.28;4924001;29;20056;-75
2022/06/26 02:36:11;;;;;;;0.93;0.30;;;;;;;33.16;16.80;100694.00;4905769;29;21093;-77
2022/06/26 02:38:41;;;;;;;1.60;0.40;;;;;;;33.11;17.37;100693.44;4901938;29;20048;-78
2022/06/26 02:41:09;;;;;;;1.27;0.40;;;;;;;33.08;18.15;100696.34;4915747;29;20111;-78
2022/06/26 02:43:38;;;;;;;1.38;0.35;;;;;;;33.02;17.88;100691.34;4910960;29;20036;-78
2022/06/26 02:46:09;;;;;;;3.20;0.45;;;;;;;33.00;17.40;100693.25;4920095;29;20048;-79
2022/06/26 02:48:38;;;;;;;1.13;0.30;;;;;;;32.93;17.33;100702.66;4914854;29;20138;-77
2022/06/26 02:51:06;;;;;;;1.77;0.30;;;;;;;32.85;17.08;100704.97;4922800;29;20107;-79
2022/06/26 02:53:35;;;;;;;0.50;0.20;;;;;;;32.77;17.58;100697.44;4927165;29;20040;-81
2022/06/26 02:56:04;;;;;;;1.88;0.32;;;;;;;32.68;17.93;100706.91;4914576;29;20395;-78
2022/06/26 02:58:32;;;;;;;0.43;0.30;;;;;;;32.61;18.44;100708.28;4911744;29;20119;-82
2022/06/26 03:01:01;;;;;;;0.82;0.30;;;;;;;32.53;18.05;100705.25;4913320;29;20048;-77
2022/06/26 03:03:31;;;;;;;6.43;0.88;;;;;;;32.45;18.12;100707.50;4908772;29;20601;-79
2022/06/26 03:05:59;;;;;;;1.35;0.30;;;;;;;32.33;18.37;100699.28;4909955;29;20103;-77
2022/06/26 03:08:28;;;;;;;1.13;0.32;;;;;;;32.22;17.92;100699.06;4921114;29;20049;-75
2022/06/26 03:10:56;;;;;;;3.55;0.40;;;;;;;32.13;18.51;100700.50;4909224;29;20052;-80
2022/06/26 03:13:25;;;;;;;0.40;0.20;;;;;;;32.02;18.52;100700.28;4908936;29;20085;-78
2022/06/26 03:15:53;;;;;;;3.10;0.55;;;;;;;31.93;18.26;100707.06;4931266;28;20099;-78
2022/06/26 03:18:22;;;;;;;1.15;0.47;;;;;;;31.83;18.80;100705.88;4927558;29;20530;-74
2022/06/26 03:20:52;;;;;;;1.77;0.20;;;;;;;31.65;18.59;100697.16;4925506;29;20099;-75
2022/06/26 03:23:20;;;;;;;0.70;0.22;;;;;;;31.64;17.97;100707.94;4917313;29;20139;-77
2022/06/26 03:25:49;;;;;;;0.43;0.20;;;;;;;31.52;18.35;100707.72;4928410;29;20053;-75
2022/06/26 03:28:17;;;;;;;0.77;0.30;;;;;;;31.45;18.19;100705.47;4921239;29;20055;-76
2022/06/26 03:30:49;;;;;;;0.50;0.28;;;;;;;31.35;18.50;100705.13;4932339;29;20111;-77
2022/06/26 03:33:18;;;;;;;0.50;0.22;;;;;;;31.26;19.15;100711.03;4941476;29;20573;-77
2022/06/26 03:35:46;;;;;;;0.65;0.20;;;;;;;31.17;18.55;100716.91;4931312;29;20486;-79
2022/06/26 03:38:16;;;;;;;1.52;0.20;;;;;;;31.06;18.25;100710.38;4939440;29;20544;-74
2022/06/26 03:40:45;;;;;;;1.33;0.63;;;;;;;30.99;18.81;100716.13;4933481;29;20558;-75
2022/06/26 03:43:13;;;;;;;2.20;0.30;;;;;;;30.88;18.35;100717.59;4929940;29;20048;-77
2022/06/26 03:45:42;;;;;;;0.63;0.35;;;;;;;30.80;18.85;100717.13;4931409;29;20406;-77
2022/06/26 03:48:11;;;;;;;0.93;0.30;;;;;;;30.71;19.00;100717.63;4928343;29;20135;-76
2022/06/26 03:50:39;;;;;;;1.85;0.30;;;;;;;30.62;18.46;100712.81;4925642;29;20051;-78
2022/06/26 03:53:08;;;;;;;2.00;0.60;;;;;;;30.47;18.83;100707.38;4929255;29;20391;-77
2022/06/26 03:55:38;;;;;;;1.88;0.32;;;;;;;30.41;18.80;100712.19;4925712;29;20047;-76
2022/06/26 03:58:07;;;;;;;0.43;0.38;;;;;;;30.32;19.39;100715.34;4927634;29;20044;-78
2022/06/26 04:00:35;;;;;;;0.20;0.20;;;;;;;30.24;19.42;100721.06;4925717;29;20059;-76
2022/06/26 04:03:05;;;;;;;0.55;0.20;;;;;;;30.15;18.90;100722.41;4930669;29;20545;-77
2022/06/26 04:05:34;;;;;;;2.53;0.30;;;;;;;30.05;19.05;100718.47;4926063;29;20135;-75
2022/06/26 04:08:03;;;;;;;0.75;0.30;;;;;;;29.98;18.65;100719.75;4930666;29;20588;-75
2022/06/26 04:10:32;;;;;;;0.65;0.25;;;;;;;29.92;19.01;100722.75;4930469;29;20062;-78
2022/06/26 04:13:04;;;;;;;0.60;0.40;;;;;;;29.83;19.06;100727.63;4929834;29;20489;-78
2022/06/26 04:15:34;;;;;;;0.95;0.38;;;;;;;29.76;19.62;100720.03;4929787;28;20047;-77
2022/06/26 04:18:03;;;;;;;0.47;0.22;;;;;;;29.68;19.47;100724.88;4930398;29;20047;-80
2022/06/26 04:20:32;;;;;;;0.55;0.20;;;;;;;29.62;19.71;100734.03;4929659;29;20181;-78
2022/06/26 04:23:02;;;;;;;0.90;0.60;;;;;;;29.54;19.31;100731.72;4931660;29;20573;-79
2022/06/26 04:25:32;;;;;;;0.40;0.28;;;;;;;29.48;19.67;100731.16;4930158;29;20056;-76
2022/06/26 04:28:02;;;;;;;1.63;0.30;;;;;;;29.42;19.54;100733.19;4929469;29;20055;-79
2022/06/26 04:30:31;;;;;;;0.20;0.20;;;;;;;29.34;19.48;100735.38;4932757;29;20626;-76
2022/06/26 04:32:59;;;;;;;1.30;0.22;;;;;;;29.29;19.60;100740.06;4937865;29;20126;-74
2022/06/26 04:35:28;;;;;;;0.90;0.60;;;;;;;29.22;19.43;100731.50;4929077;29;20044;-75
2022/06/26 04:37:57;;;;;;;3.00;0.40;;;;;;;29.16;19.72;100736.25;4930732;29;20048;-78
2022/06/26 04:40:25;;;;;;;2.28;0.40;;;;;;;29.09;19.64;100737.50;4930750;29;20047;-77
2022/06/26 04:42:55;;;;;;;1.52;0.40;;;;;;;28.96;19.68;100735.41;4930838;29;20111;-77
2022/06/26 04:45:25;;;;;;;0.35;0.20;;;;;;;28.89;19.57;100733.97;4932738;29;20064;-79
2022/06/26 04:47:54;;;;;;;1.40;0.40;;;;;;;28.91;19.99;100753.41;4938548;29;20099;-76
2022/06/26 04:50:22;;;;;;;1.65;0.20;;;;;;;28.86;19.84;100751.88;4930816;29;20048;-80
2022/06/26 04:52:51;;;;;;;0.20;0.20;;;;;;;28.78;19.94;100753.09;4930798;29;20110;-75
2022/06/26 04:55:20;;;;;;;1.20;0.55;;;;;;;28.72;19.74;100757.84;4931975;29;20052;-74
2022/06/26 04:57:48;;;;;;;2.30;0.40;;;;;;;28.66;20.04;100759.00;4926846;29;20051;-79
2022/06/26 05:00:17;;;;;;;0.98;0.30;;;;;;;28.60;19.83;100760.13;4924342;29;20044;-77
2022/06/26 05:02:47;;;;;;;1.55;0.40;;;;;;;28.56;20.26;100765.66;4934726;29;20107;-81
2022/06/26 05:05:16;;;;;;;0.38;0.32;;;;;;;28.50;20.15;100768.63;4934323;29;20047;-76
2022/06/26 05:07:44;;;;;;;1.88;0.40;;;;;;;28.42;20.77;100772.44;4935809;29;20051;-74
2022/06/26 05:10:13;;;;;;;0.50;0.30;;;;;;;28.39;20.46;100777.06;4934781;29;20486;-76
2022/06/26 05:12:51;;;;;;;0.82;0.30;;;;;;;28.32;20.43;100775.59;4934016;29;20495;-75
2022/06/26 05:15:32;;;;;;;1.35;0.35;;;;;;;28.26;20.97;100776.72;4932995;28;20098;-78
2022/06/26 05:18:02;;;;;;;0.70;0.40;;;;;;;28.18;22.42;100785.03;4933322;29;20051;-75
2022/06/26 05:20:31;;;;;;;1.92;0.40;;;;;;;28.08;21.33;100783.69;4934240;29;20103;-79
2022/06/26 05:22:59;;;;;;;0.50;0.40;;;;;;;28.01;21.63;100786.69;4930412;29;20564;-76
2022/06/26 05:25:28;;;;;;;1.50;0.40;;;;;;;27.95;21.29;100793.16;4935262;29;20044;-80
2022/06/26 05:27:56;;;;;;;0.45;0.30;;;;;;;27.90;21.67;100797.78;4928828;29;20490;-75
2022/06/26 05:30:25;;;;;;;0.40;0.30;;;;;;;27.84;21.74;100790.09;4926315;29;20048;-80
2022/06/26 05:32:53;;;;;;;1.50;0.40;;;;;;;27.76;21.89;100790.34;4943414;29;20457;-74
2022/06/26 05:35:23;;;;;;;3.83;0.52;;;;;;;27.70;21.94;100798.59;4929458;29;20040;-74
2022/06/26 05:37:52;;;;;;;0.55;0.30;;;;;;;27.63;22.25;100802.44;4921265;29;20108;-78
2022/06/26 05:40:20;;;;;;;1.30;0.30;;;;;;;27.56;22.20;100796.50;4932233;29;20040;-78
2022/06/26 05:42:49;;;;;;;1.73;0.40;;;;;;;27.50;22.06;100802.06;4934186;29;20111;-75
2022/06/26 05:45:18;;;;;;;0.68;0.30;;;;;;;27.43;22.79;100795.25;4933214;29;20044;-77
2022/06/26 05:47:46;;;;;;;1.30;0.32;;;;;;;27.35;23.49;100795.53;4933652;29;20083;-75
2022/06/26 05:50:14;;;;;;;1.05;0.28;;;;;;;27.27;23.03;100790.56;4932317;29;20558;-76
2022/06/26 05:52:44;;;;;;;1.55;0.40;;;;;;;27.22;22.59;100797.84;4941208;29;20048;-80
2022/06/26 05:55:13;;;;;;;0.80;0.40;;;;;;;27.17;23.11;100799.78;4933156;29;20139;-74
2022/06/26 05:57:41;;;;;;;1.85;0.40;;;;;;;27.10;24.31;100809.78;4933044;29;20062;-76
2022/06/26 06:00:11;;;;;;;2.65;0.50;;;;;;;26.99;24.12;100805.81;4929248;29;20044;-75
2022/06/26 06:02:40;;;;;;;2.05;0.30;;;;;;;26.91;25.32;100812.25;4933837;29;20581;-74
2022/06/26 06:05:09;;;;;;;0.80;0.40;;;;;;;26.86;26.08;100816.00;4927074;29;20510;-75
2022/06/26 06:07:38;;;;;;;1.55;0.30;;;;;;;26.80;25.62;100817.13;4940087;29;20043;-76
2022/06/26 06:10:10;;;;;;;2.45;0.50;;;;;;;26.72;25.20;100813.88;4929207;29;20075;-76
2022/06/26 06:12:39;;;;;;;1.70;0.60;;;;;;;26.64;24.78;100811.50;4935090;29;20043;-76
2022/06/26 06:15:08;;;;;;;2.17;0.43;;;;;;;26.56;24.67;100812.69;4938238;28;20051;-75
2022/06/26 06:17:41;;;;;;;2.25;0.40;;;;;;;26.46;24.48;100812.13;4924588;29;20044;-76
2022/06/26 06:20:12;;;;;;;0.68;0.40;;;;;;;26.38;24.99;100815.03;4933554;29;20048;-75
2022/06/26 06:22:41;;;;;;;1.73;0.45;;;;;;;26.29;25.01;100815.38;4931300;29;20059;-76
2022/06/26 06:25:12;;;;;;;1.42;0.40;;;;;;;26.21;24.83;100820.09;4930180;29;20059;-79
2022/06/26 06:27:40;;;;;;;2.45;0.35;;;;;;;26.12;24.96;100815.97;4923373;29;20577;-76
2022/06/26 06:30:10;;;;;;;0.85;0.43;;;;;;;26.06;24.89;100817.03;4928488;29;20050;-76
2022/06/26 06:32:40;;;;;;;2.78;0.40;;;;;;;26.02;24.48;100812.75;4940394;29;20058;-77
2022/06/26 06:35:11;;;;;;;3.20;0.60;;;;;;;25.97;24.63;100819.13;4928544;29;20052;-76
2022/06/26 06:37:39;;;;;;;3.35;0.50;;;;;;;25.89;25.23;100816.75;4934109;29;20061;-75
2022/06/26 06:40:11;;;;;;;2.35;0.65;;;;;;;25.84;25.34;100830.09;4931930;29;20043;-75
2022/06/26 06:42:39;;;;;;;1.20;0.40;;;;;;;25.79;24.79;100825.84;4925784;29;20573;-76
2022/06/26 06:45:09;;;;;;;5.88;0.50;;;;;;;25.77;24.74;100827.69;4931902;29;20044;-76
2022/06/26 06:47:37;;;;;;;0.70;0.32;;;;;;;25.74;25.08;100825.16;4937404;29;20043;-75
2022/06/26 06:50:06;;;;;;;1.80;0.40;;;;;;;25.70;25.30;100824.38;4930108;29;20051;-73
2022/06/26 06:52:35;;;;;;;0.73;0.50;;;;;;;25.64;25.05;100822.78;4928804;29;20044;-74
2022/06/26 06:55:03;;;;;;;0.90;0.30;;;;;;;25.59;24.80;100827.38;4931655;29;20074;-74
2022/06/26 06:57:33;;;;;;;2.95;0.50;;;;;;;25.54;26.35;100821.38;4927312;29;20091;-75
2022/06/26 07:00:02;;;;;;;1.73;0.40;;;;;;;25.46;26.39;100823.38;4932344;29;20079;-74
2022/06/26 07:02:31;;;;;;;2.28;0.60;;;;;;;25.42;26.95;100827.03;4929479;29;20051;-75
2022/06/26 07:05:00;;;;;;;0.80;0.40;;;;;;;25.36;25.77;100824.56;4935711;29;20106;-75
2022/06/26 07:07:28;;;;;;;1.25;0.30;;;;;;;25.32;26.03;100828.25;4935154;29;20489;-74
2022/06/26 07:09:57;;;;;;;1.77;0.40;;;;;;;25.28;26.41;100830.97;4927196;29;20052;-74
2022/06/26 07:12:26;;;;;;;0.30;0.30;;;;;;;25.24;26.80;100824.06;4930919;29;20119;-74
2022/06/26 07:14:56;;;;;;;0.40;0.30;;;;;;;25.21;26.65;100828.56;4934970;28;20068;-75
2022/06/26 07:17:24;;;;;;;1.80;1.17;;;;;;;25.14;27.01;100822.53;4937258;29;20177;-74
2022/06/26 07:19:53;;;;;;;2.88;0.40;;;;;;;25.01;26.69;100818.53;4931681;29;20066;-73
2022/06/26 07:22:21;;;;;;;3.22;0.57;;;;;;;24.98;27.84;100823.91;4932683;29;20051;-74
2022/06/26 07:24:50;;;;;;;0.65;0.35;;;;;;;24.92;27.32;100826.72;4938869;29;20059;-74
2022/06/26 07:27:19;;;;;;;3.95;0.60;;;;;;;24.81;27.66;100825.28;4936398;29;20138;-74
2022/06/26 07:29:47;;;;;;;1.27;0.50;;;;;;;24.74;27.67;100828.13;4932298;29;20056;-74
2022/06/26 07:32:17;;;;;;;0.52;0.38;;;;;;;24.67;27.33;100827.44;4937472;29;20047;-75
2022/06/26 07:34:46;;;;;;;1.63;0.30;;;;;;;24.63;27.03;100821.34;4934077;29;20052;-74
2022/06/26 07:37:14;;;;;;;0.60;0.40;;;;;;;24.59;26.43;100829.44;4937885;29;20111;-75
2022/06/26 07:39:43;;;;;;;0.45;0.30;;;;;;;24.54;27.08;100820.75;4936729;29;20050;-74
2022/06/26 07:42:11;;;;;;;0.38;0.20;;;;;;;24.51;27.26;100816.41;4931336;29;20059;-74
2022/06/26 07:44:40;;;;;;;2.40;0.45;;;;;;;24.46;26.57;100819.16;4931733;29;20056;-74
2022/06/26 07:47:09;;;;;;;0.75;0.30;;;;;;;24.42;26.88;100817.50;4928576;29;20102;-74
2022/06/26 07:49:39;;;;;;;0.70;0.40;;;;;;;24.39;27.27;100820.19;4931528;29;20059;-74
2022/06/26 07:52:07;;;;;;;2.15;0.50;;;;;;;24.35;26.21;100820.31;4929382;29;20059;-74
2022/06/26 07:54:36;;;;;;;2.55;0.50;;;;;;;24.34;26.68;100824.75;4931143;29;20044;-74
2022/06/26 07:57:04;;;;;;;0.95;0.40;;;;;;;24.32;26.54;100831.84;4931113;29;20058;-74
2022/06/26 07:59:33;;;;;;;0.85;0.50;;;;;;;24.31;26.30;100823.97;4923996;29;20044;-74
2022/06/26 08:02:02;;;;;;;0.52;0.40;;;;;;;24.28;26.70;100826.69;4930224;29;20525;-73
2022/06/26 08:04:30;;;;;;;1.60;0.30;;;;;;;24.24;26.65;100831.22;4932713;29;20071;-74
2022/06/26 08:07:01;;;;;;;1.85;0.50;;;;;;;24.20;26.94;100827.75;4931477;29;20056;-74
2022/06/26 08:09:29;;;;;;;1.95;0.40;;;;;;;24.18;26.60;100826.94;4931764;29;20513;-75
2022/06/26 08:11:58;;;;;;;3.90;0.50;;;;;;;24.17;26.59;100827.00;4930891;29;20462;-75
2022/06/26 08:14:26;;;;;;;1.45;0.63;;;;;;;24.14;26.67;100827.91;4929458;28;20055;-74
2022/06/26 08:16:55;;;;;;;0.82;0.50;;;;;;;24.14;26.09;100834.97;4913106;29;20048;-72
2022/06/26 08:19:23;;;;;;;0.73;0.50;;;;;;;24.10;26.49;100833.31;4912457;29;20135;-73
2022/06/26 08:22:02;;;;;;;1.17;0.40;;;;;;;24.08;26.91;100836.00;4908102;29;20059;-73
2022/06/26 08:24:33;;;;;;;3.05;0.30;;;;;;;24.03;26.13;100829.97;4908634;29;20052;-74
2022/06/26 08:27:02;;;;;;;1.70;0.30;;;;;;;24.00;27.72;100830.03;4904852;29;20126;-76
2022/06/26 08:29:31;;;;;;;1.13;0.30;;;;;;;23.96;26.90;100831.00;4906162;29;20581;-75
2022/06/26 08:31:59;;;;;;;2.40;0.52;;;;;;;23.92;27.29;100827.59;4910092;29;20043;-74
2022/06/26 08:34:28;;;;;;;0.80;0.40;;;;;;;23.90;27.36;100825.91;4928060;29;20462;-74
2022/06/26 08:36:57;;;;;;;0.65;0.32;;;;;;;23.83;27.54;100833.09;4929815;29;20099;-74
2022/06/26 08:39:26;;;;;;;0.90;0.60;;;;;;;23.78;27.73;100841.16;4930642;29;20063;-74
2022/06/26 08:41:56;;;;;;;0.95;0.38;;;;;;;23.74;27.99;100839.47;4930798;29;20044;-75
2022/06/26 08:44:26;;;;;;;1.35;0.40;;;;;;;23.71;28.25;100833.34;4930339;29;20051;-73
2022/06/26 08:46:56;;;;;;;2.40;0.57;;;;;;;23.66;27.73;100835.25;4931307;29;20104;-74
2022/06/26 08:49:25;;;;;;;0.45;0.30;;;;;;;23.63;28.18;100831.75;4932794;29;20514;-74
2022/06/26 08:51:54;;;;;;;0.60;0.40;;;;;;;23.61;27.59;100828.28;4929996;29;20099;-74
2022/06/26 08:54:22;;;;;;;1.85;0.40;;;;;;;23.58;27.67;100832.78;4940225;29;20493;-75
2022/06/26 08:56:51;;;;;;;1.98;0.60;;;;;;;23.53;28.47;100834.66;4932278;29;20055;-74
2022/06/26 08:59:21;;;;;;;2.15;0.45;;;;;;;23.50;29.22;100834.72;4930251;29;20161;-75
2022/06/26 09:01:50;;;;;;;1.35;0.40;;;;;;;23.44;29.70;100837.53;4928346;29;20052;-75
2022/06/26 09:04:19;;;;;;;1.23;0.40;;;;;;;23.38;29.19;100839.38;4937088;29;20055;-74
2022/06/26 09:06:48;;;;;;;2.47;0.55;;;;;;;23.37;29.35;100835.00;4930176;29;20087;-75
2022/06/26 09:09:18;;;;;;;2.03;0.50;;;;;;;23.36;28.53;100837.66;4929982;29;20379;-74
2022/06/26 09:11:47;;;;;;;3.38;0.50;;;;;;;23.34;28.29;100837.72;4929685;29;20084;-74
2022/06/26 09:14:16;;;;;;;1.92;0.40;;;;;;;23.34;27.77;100837.72;4929941;29;20135;-75
2022/06/26 09:16:48;;;;;;;2.47;0.43;;;;;;;23.34;28.79;100834.19;4929694;28;20063;-74
2022/06/26 09:19:19;;;;;;;3.25;0.50;;;;;;;23.32;28.63;100842.16;4929649;29;20103;-73
2022/06/26 09:21:48;;;;;;;0.32;0.30;;;;;;;23.30;28.85;100837.81;4931439;29;20048;-74
2022/06/26 09:24:18;;;;;;;0.93;0.43;;;;;;;23.27;28.82;100840.50;4930396;29;20058;-74
2022/06/26 09:26:47;;;;;;;1.40;0.47;;;;;;;23.23;28.71;100838.84;4928241;29;20081;-75
2022/06/26 09:29:18;;;;;;;0.80;0.40;;;;;;;23.19;28.76;100832.78;4931059;29;20553;-74
2022/06/26 09:31:48;;;;;;;0.47;0.30;;;;;;;23.15;28.57;100836.38;4931848;29;20107;-74
2022/06/26 09:34:26;;;;;;;1.92;0.52;;;;;;;23.10;29.13;100833.84;4937939;29;20059;-74
2022/06/26 09:36:59;;;;;;;1.27;0.40;;;;;;;23.07;29.32;100831.25;4928915;29;20048;-74
2022/06/26 09:39:28;;;;;;;0.65;0.47;;;;;;;23.04;29.28;100831.31;4933313;29;20482;-75
2022/06/26 09:41:56;;;;;;;0.63;0.40;;;;;;;23.00;29.29;100833.16;4939467;28;20230;-74
2022/06/26 09:44:25;;;;;;;2.13;0.30;;;;;;;22.96;30.50;100828.81;4934389;29;20051;-74
2022/06/26 09:46:55;;;;;;;4.38;0.65;;;;;;;22.90;31.50;100825.41;4931108;29;20447;-73
2022/06/26 09:49:24;;;;;;;1.60;0.47;;;;;;;22.84;31.49;100820.25;4933063;29;20483;-73
2022/06/26 09:51:53;;;;;;;4.78;0.70;;;;;;;22.77;32.50;100825.69;4932592;29;20498;-74
2022/06/26 09:54:23;;;;;;;3.78;0.43;;;;;;;22.73;32.42;100831.03;4927895;29;20048;-74
2022/06/26 09:56:58;;;;;;;1.35;0.50;;;;;;;22.69;31.97;100830.22;4931083;29;20048;-75
2022/06/26 09:59:26;;;;;;;1.02;0.30;;;;;;;22.66;31.89;100825.03;4932872;29;20051;-74
2022/06/26 10:07:27;;;;;;;2.28;0.38;;;;;;;22.60;31.70;100830.41;4945974;29;20053;-73
2022/06/26 10:09:57;;;;;;;2.25;0.50;;;;;;;22.59;31.51;100831.31;4943876;29;20549;-75
2022/06/26 10:12:26;;;;;;;2.70;0.50;;;;;;;22.57;31.77;100833.97;4933538;29;20047;-74
2022/06/26 10:14:55;;;;;;;1.15;0.60;;;;;;;22.54;32.20;100841.06;4939904;28;20406;-73
2022/06/26 10:17:37;;;;;;;2.47;0.55;;;;;;;22.49;32.19;100832.38;4944871;29;20054;-74
2022/06/26 10:20:09;;;;;;;2.08;0.47;;;;;;;22.47;32.68;100832.41;4924411;29;20122;-74
2022/06/26 10:22:41;;;;;;;0.93;0.50;;;;;;;22.46;32.68;100828.03;4931196;29;20056;-74
2022/06/26 10:25:22;;;;;;;0.60;0.40;;;;;;;22.46;34.49;100832.44;4933073;29;20051;-74
2022/06/26 10:27:50;;;;;;;1.40;0.30;;;;;;;22.42;34.38;100831.59;4932881;29;20108;-75
2022/06/26 10:30:21;;;;;;;0.95;0.60;;;;;;;22.42;34.33;100828.09;4925887;29;20102;-74
2022/06/26 10:33:09;;;;;;;1.08;0.50;;;;;;;22.40;33.66;100832.53;4938991;29;20048;-75
2022/06/26 10:35:42;;;;;;;0.88;0.52;;;;;;;22.38;34.95;100830.81;4927749;29;20506;-74
2022/06/26 10:38:24;;;;;;;2.15;0.52;;;;;;;22.37;34.78;100834.31;4925064;29;20116;-74
2022/06/26 10:44:01;;;;;;;;;;;;;;;22.32;35.93;100830.06;4927930;29;20769;-74
2022/06/26 10:46:37;;;;;;;2.28;0.73;;;;;;;22.33;34.47;100831.78;4928316;29;20009;-74
2022/06/26 10:49:09;;;;;;;0.85;0.47;;;;;;;22.32;34.57;100825.63;4932425;29;20123;-73
2022/06/26 10:51:41;;;;;;;0.82;0.60;;;;;;;22.34;33.05;100828.25;4929521;29;20142;-74
2022/06/26 10:54:20;;;;;;;;;;;;;;;22.35;35.73;100830.84;4927605;29;20493;-74
2022/06/26 10:56:48;;;;;;;0.63;0.40;;;;;;;22.32;35.93;100823.00;4927959;29;20026;-75
2022/06/26 10:59:22;;;;;;;4.68;0.63;;;;;;;22.28;35.26;100816.03;4924098;29;20111;-73
2022/06/26 11:01:51;;;;;;;0.73;0.38;;;;;;;22.25;35.44;100815.25;4927922;29;20577;-74
2022/06/26 11:04:22;;;;;;;2.67;0.90;;;;;;;22.21;35.30;100813.53;4928721;29;20487;-74
2022/06/26 11:06:52;;;;;;;1.30;0.73;;;;;;;22.20;35.45;100812.66;4934416;29;20501;-73
2022/06/26 11:09:21;;;;;;;0.60;0.47;;;;;;;22.21;34.67;100818.78;4935043;29;20040;-73
2022/06/26 11:11:53;;;;;;;1.92;0.60;;;;;;;22.19;34.86;100824.06;4925675;29;20554;-74
2022/06/26 11:14:22;;;;;;;1.65;0.60;;;;;;;22.17;34.78;100823.22;4931686;29;20059;-74
2022/06/26 11:16:50;;;;;;;0.50;0.40;;;;;;;22.15;34.09;100818.00;4933422;28;20052;-75
2022/06/26 11:19:28;;;;;;;0.93;0.50;;;;;;;22.12;33.72;100817.19;4927846;29;20119;-74
2022/06/26 11:22:06;;;;;;;1.30;0.50;;;;;;;22.11;33.99;100823.34;4931564;29;20106;-74
2022/06/26 11:24:35;;;;;;;2.33;0.57;;;;;;;22.06;32.88;100822.53;4929794;29;20058;-75
2022/06/26 11:27:04;;;;;;;1.85;0.50;;;;;;;22.06;32.76;100826.06;4934753;29;20055;-75
2022/06/26 11:29:32;;;;;;;1.63;0.40;;;;;;;22.04;33.10;100817.31;4932500;29;20458;-74
2022/06/26 11:32:01;;;;;;;3.15;0.68;;;;;;;22.05;33.39;100820.81;4930320;29;20451;-74
2022/06/26 11:34:31;;;;;;;2.40;0.30;;;;;;;22.05;34.56;100815.56;4928417;29;20083;-73
2022/06/26 11:37:02;;;;;;;4.70;0.50;;;;;;;22.04;34.81;100814.69;4927509;29;20055;-73
2022/06/26 11:39:39;;;;;;;1.15;0.50;;;;;;;22.05;34.17;100816.41;4935565;29;20098;-74
2022/06/26 11:42:16;;;;;;;1.55;0.55;;;;;;;22.06;32.49;100817.28;4930554;29;20051;-75
2022/06/26 11:44:55;;;;;;;1.95;0.75;;;;;;;22.05;33.19;100812.91;4934653;29;20108;-74
2022/06/26 11:47:24;;;;;;;2.05;0.50;;;;;;;22.05;33.21;100810.28;4939331;29;20083;-74
2022/06/26 11:49:54;;;;;;;0.68;0.40;;;;;;;22.02;33.69;100813.84;4927888;29;20513;-74